Time;durP1;ratioP1;P1;durP2;ratioP2;P2;SDS_P1;SDS_P2;PMS_P1;PMS_P2;Temp;Humidity;BMP_temperature;BMP_pressure;BME280_temperature;BME280_humidity;BME280_pressure;Samples;Min_cycle;Max_cycle;Signal;HPM_P1;HPM_P2
2024/03/06 00:01:39;;;;;;;26.77;14.13;;;;;;;4.22;100.00;101433.25;5010841;28;20029;-71
2024/03/06 00:04:04;;;;;;;24.08;12.45;;;;;;;4.17;100.00;101442.19;5008231;28;20049;-71
2024/03/06 00:06:30;;;;;;;25.63;13.75;;;;;;;4.14;100.00;101448.31;5025254;28;20128;-70
2024/03/06 00:08:56;;;;;;;24.15;12.18;;;;;;;4.10;100.00;101455.38;5012934;28;20040;-71
2024/03/06 00:11:22;;;;;;;19.73;11.35;;;;;;;4.09;100.00;101455.50;5025969;28;20498;-71
2024/03/06 00:13:47;;;;;;;23.90;13.50;;;;;;;4.07;100.00;101455.59;5004839;28;20050;-71
2024/03/06 00:16:13;;;;;;;28.30;14.75;;;;;;;4.05;100.00;101449.75;5028722;28;20028;-71
2024/03/06 00:18:40;;;;;;;24.00;13.48;;;;;;;4.03;100.00;101453.31;5027428;28;20032;-71
2024/03/06 00:21:06;;;;;;;26.70;14.13;;;;;;;4.01;100.00;101452.59;5024433;28;20028;-71
2024/03/06 00:23:32;;;;;;;28.00;13.75;;;;;;;3.93;100.00;101453.06;5028792;28;20029;-71
2024/03/06 00:25:57;;;;;;;23.90;12.60;;;;;;;3.86;100.00;101456.94;5027227;28;20114;-71
2024/03/06 00:28:24;;;;;;;25.00;13.38;;;;;;;3.83;100.00;101452.84;5027037;28;22259;-72
2024/03/06 00:30:49;;;;;;;21.73;11.55;;;;;;;3.83;100.00;101463.09;5027398;28;20065;-71
2024/03/06 00:33:15;;;;;;;23.52;12.98;;;;;;;3.82;100.00;101466.56;5028962;28;20506;-71
2024/03/06 00:35:40;;;;;;;24.75;12.85;;;;;;;3.80;100.00;101467.59;5030963;28;20029;-71
2024/03/06 00:38:06;;;;;;;29.08;14.93;;;;;;;3.78;100.00;101465.13;5029561;28;20558;-71
2024/03/06 00:40:32;;;;;;;26.20;13.18;;;;;;;3.77;100.00;101472.91;5028004;28;20518;-71
2024/03/06 00:42:58;;;;;;;24.05;12.23;;;;;;;3.71;100.00;101474.09;5025387;28;20403;-71
2024/03/06 00:45:23;;;;;;;21.85;11.30;;;;;;;3.63;100.00;101479.72;5029725;28;20052;-71
2024/03/06 00:47:49;;;;;;;19.42;10.00;;;;;;;3.57;100.00;101474.97;5013224;28;20033;-71
2024/03/06 00:50:16;;;;;;;20.27;10.98;;;;;;;3.54;100.00;101484.59;5011019;28;20622;-71
2024/03/06 00:52:42;;;;;;;24.48;12.05;;;;;;;3.53;100.00;101494.03;5026465;28;20033;-71
2024/03/06 00:55:08;;;;;;;24.63;12.88;;;;;;;3.51;100.00;101494.13;5022054;28;20446;-71
2024/03/06 00:57:34;;;;;;;29.98;14.77;;;;;;;3.53;100.00;101499.16;5028447;28;20468;-71
2024/03/06 01:00:00;;;;;;;31.02;15.73;;;;;;;3.53;100.00;101499.16;5024655;28;20045;-71
2024/03/06 01:02:25;;;;;;;36.72;16.75;;;;;;;3.52;100.00;101497.50;5005866;28;20033;-71
2024/03/06 01:04:50;;;;;;;35.63;17.80;;;;;;;3.53;100.00;101496.59;5015387;28;20045;-71
2024/03/06 01:07:16;;;;;;;33.63;17.65;;;;;;;3.52;100.00;101502.63;5014972;28;20115;-71
2024/03/06 01:09:42;;;;;;;32.58;17.17;;;;;;;3.51;100.00;101506.13;5021581;28;20491;-70
2024/03/06 01:12:07;;;;;;;30.80;16.13;;;;;;;3.49;100.00;101510.53;5023394;28;20044;-71
2024/03/06 01:14:33;;;;;;;36.38;16.85;;;;;;;3.48;100.00;101504.56;5020556;28;20049;-71
2024/03/06 01:16:59;;;;;;;31.83;15.80;;;;;;;3.49;100.00;101507.97;5023390;28;20080;-71
2024/03/06 01:19:24;;;;;;;30.60;15.27;;;;;;;3.47;100.00;101513.16;5025189;28;20045;-71
2024/03/06 01:21:50;;;;;;;30.92;16.23;;;;;;;3.46;100.00;101505.56;5020654;28;20021;-70
2024/03/06 01:24:15;;;;;;;33.60;15.77;;;;;;;3.43;100.00;101504.03;5024223;28;20115;-71
2024/03/06 01:26:41;;;;;;;30.02;15.60;;;;;;;3.44;100.00;101504.84;5025210;28;20018;-71
2024/03/06 01:29:06;;;;;;;27.67;14.80;;;;;;;3.45;100.00;101511.63;5025476;28;20049;-71
2024/03/06 01:31:32;;;;;;;30.08;14.80;;;;;;;3.45;100.00;101514.19;5027177;28;20040;-71
2024/03/06 01:33:58;;;;;;;28.85;15.10;;;;;;;3.47;100.00;101514.91;5026494;28;20168;-71
2024/03/06 01:36:23;;;;;;;27.95;13.63;;;;;;;3.47;100.00;101520.88;5027960;28;20022;-71
2024/03/06 01:38:49;;;;;;;28.55;14.65;;;;;;;3.47;100.00;101523.44;5021208;28;20551;-71
2024/03/06 01:41:15;;;;;;;31.25;16.48;;;;;;;3.47;100.00;101520.06;5009871;28;20029;-72
2024/03/06 01:43:40;;;;;;;22.77;12.55;;;;;;;3.43;100.00;101521.16;5022853;28;20037;-71
2024/03/06 01:46:06;;;;;;;21.90;12.45;;;;;;;3.37;100.00;101527.47;5029747;28;20032;-70
2024/03/06 01:48:33;;;;;;;23.35;12.50;;;;;;;3.37;100.00;101521.50;5024179;28;20434;-71
2024/03/06 01:51:02;;;;;;;22.35;11.68;;;;;;;3.38;100.00;101516.28;5028323;28;20057;-70
2024/03/06 01:53:30;;;;;;;36.72;15.82;;;;;;;3.42;100.00;101525.44;5021571;28;20033;-71
2024/03/06 01:55:56;;;;;;;28.80;14.38;;;;;;;3.44;100.00;101527.91;5028013;28;20046;-71
2024/03/06 01:58:23;;;;;;;30.05;14.13;;;;;;;3.45;100.00;101532.13;5025157;28;20049;-71
2024/03/06 02:00:50;;;;;;;24.40;13.30;;;;;;;3.45;100.00;101527.81;5022054;28;20033;-71
2024/03/06 02:03:17;;;;;;;29.38;14.40;;;;;;;3.47;100.00;101528.56;5023178;28;20081;-71
2024/03/06 02:05:43;;;;;;;30.05;13.90;;;;;;;3.49;100.00;101519.03;5026537;28;20044;-72
2024/03/06 02:08:08;;;;;;;29.20;15.05;;;;;;;3.50;100.00;101528.38;5023283;28;20041;-71
2024/03/06 02:10:34;;;;;;;30.73;15.40;;;;;;;3.51;100.00;101531.75;5029184;28;20033;-71
2024/03/06 02:13:00;;;;;;;29.67;15.05;;;;;;;3.51;100.00;101531.75;5020571;28;20144;-70
2024/03/06 02:15:26;;;;;;;27.42;12.75;;;;;;;3.50;100.00;101535.22;5005627;28;20491;-71
2024/03/06 02:17:53;;;;;;;25.58;14.25;;;;;;;3.48;100.00;101537.91;5024708;28;20037;-71
2024/03/06 02:20:24;;;;;;;23.63;12.88;;;;;;;3.49;100.00;101533.59;5020116;28;20057;-71
2024/03/06 02:22:51;;;;;;;25.90;13.05;;;;;;;3.50;100.00;101536.09;5021106;28;20117;-71
2024/03/06 02:25:16;;;;;;;27.73;13.07;;;;;;;3.54;100.00;101539.25;5022123;28;20042;-71
2024/03/06 02:27:44;;;;;;;28.27;13.98;;;;;;;3.57;100.00;101535.69;5003953;28;20131;-71
2024/03/06 02:30:10;;;;;;;26.63;14.35;;;;;;;3.58;100.00;101535.63;5024795;28;20052;-71
2024/03/06 02:32:36;;;;;;;25.77;14.23;;;;;;;3.59;100.00;101537.25;5021812;28;20041;-71
2024/03/06 02:35:03;;;;;;;32.05;15.00;;;;;;;3.60;100.00;101543.19;5018920;28;20059;-71
2024/03/06 02:37:28;;;;;;;28.70;16.38;;;;;;;3.59;100.00;101539.81;5027368;28;20037;-71
2024/03/06 02:39:54;;;;;;;32.35;15.95;;;;;;;3.61;100.00;101530.28;5024152;28;20041;-71
2024/03/06 02:42:20;;;;;;;30.65;16.20;;;;;;;3.61;100.00;101532.03;5025969;28;20497;-71
2024/03/06 02:44:45;;;;;;;34.38;17.70;;;;;;;3.61;100.00;101540.53;5021623;28;20045;-71
2024/03/06 02:47:11;;;;;;;35.08;16.50;;;;;;;3.58;100.00;101533.06;5021100;28;20033;-71
2024/03/06 02:49:36;;;;;;;33.45;16.83;;;;;;;3.57;100.00;101535.69;5025244;28;20042;-71
2024/03/06 02:52:02;;;;;;;32.00;15.50;;;;;;;3.54;100.00;101541.00;5023341;28;20059;-70
2024/03/06 02:54:27;;;;;;;34.60;16.90;;;;;;;3.51;100.00;101540.28;5027018;28;20402;-71
2024/03/06 02:56:53;;;;;;;33.63;16.33;;;;;;;3.51;100.00;101540.28;5025660;28;20480;-71
2024/03/06 02:59:18;;;;;;;36.10;15.68;;;;;;;3.48;100.00;101534.50;5021390;28;20026;-71
2024/03/06 03:01:44;;;;;;;33.28;16.27;;;;;;;3.46;100.00;101541.47;5022052;28;20407;-70
2024/03/06 03:04:10;;;;;;;31.25;15.63;;;;;;;3.42;100.00;101538.25;5017196;28;20061;-72
2024/03/06 03:06:36;;;;;;;28.05;15.48;;;;;;;3.42;100.00;101537.44;5011701;28;20377;-71
2024/03/06 03:09:03;;;;;;;27.42;15.30;;;;;;;3.40;100.00;101536.72;5016253;28;20053;-71
2024/03/06 03:11:29;;;;;;;35.63;16.63;;;;;;;3.37;100.00;101531.75;5016722;28;20037;-71
2024/03/06 03:13:55;;;;;;;28.05;15.27;;;;;;;3.35;100.00;101533.59;5017232;28;20434;-71
2024/03/06 03:16:20;;;;;;;31.92;15.48;;;;;;;3.31;100.00;101541.47;5019799;28;20036;-71
2024/03/06 03:18:47;;;;;;;29.27;15.75;;;;;;;3.29;100.00;101537.34;5018221;28;20049;-71
2024/03/06 03:21:13;;;;;;;29.58;15.73;;;;;;;3.27;100.00;101539.16;5016741;28;20037;-71
2024/03/06 03:23:39;;;;;;;31.52;15.77;;;;;;;3.23;100.00;101537.72;5017218;28;20044;-71
2024/03/06 03:26:06;;;;;;;26.48;15.23;;;;;;;3.20;100.00;101543.84;5019325;28;20029;-71
2024/03/06 03:28:32;;;;;;;28.75;15.98;;;;;;;3.18;100.00;101539.72;5014378;28;20108;-72
2024/03/06 03:30:58;;;;;;;28.63;15.32;;;;;;;3.12;100.00;101546.03;5014171;28;20454;-71
2024/03/06 03:33:24;;;;;;;30.35;14.82;;;;;;;3.09;100.00;101546.22;5021502;28;20476;-72
2024/03/06 03:35:50;;;;;;;28.13;14.00;;;;;;;3.05;100.00;101550.69;5023793;28;20037;-71
2024/03/06 03:38:16;;;;;;;30.95;14.13;;;;;;;3.02;100.00;101545.72;5026432;28;20045;-71
2024/03/06 03:40:41;;;;;;;29.85;15.90;;;;;;;3.01;100.00;101550.94;5024165;28;20092;-71
2024/03/06 03:43:07;;;;;;;26.58;14.57;;;;;;;2.98;100.00;101558.81;5024698;28;20438;-71
2024/03/06 03:45:35;;;;;;;29.63;16.40;;;;;;;2.93;100.00;101564.19;5010643;28;20045;-71
2024/03/06 03:48:05;;;;;;;25.45;12.93;;;;;;;2.78;100.00;101565.06;5010819;28;20033;-71
2024/03/06 03:50:31;;;;;;;23.63;11.65;;;;;;;2.63;100.00;101562.44;5025170;28;20025;-71
2024/03/06 03:52:57;;;;;;;26.58;11.20;;;;;;;2.60;100.00;101564.34;5028947;28;20037;-70
2024/03/06 03:55:27;;;;;;;25.05;11.65;;;;;;;2.52;100.00;101565.63;5017592;28;20030;-71
2024/03/06 03:57:52;;;;;;;20.73;11.38;;;;;;;2.45;100.00;101561.75;5030411;28;20037;-71
2024/03/06 04:00:19;;;;;;;22.45;11.05;;;;;;;2.38;100.00;101570.66;5022267;28;20080;-71
2024/03/06 04:02:44;;;;;;;16.13;10.05;;;;;;;2.31;100.00;101574.47;5026239;28;20040;-71
2024/03/06 04:05:10;;;;;;;17.00;9.82;;;;;;;2.26;100.00;101579.00;5021199;28;20037;-71
2024/03/06 04:07:36;;;;;;;17.65;10.98;;;;;;;2.25;100.00;101579.94;5024964;28;20028;-71
2024/03/06 04:10:03;;;;;;;20.55;11.90;;;;;;;2.23;100.00;101581.75;5025112;28;20103;-71
2024/03/06 04:14:58;;;;;;;24.02;13.25;;;;;;;2.19;100.00;101590.50;4960384;28;20046;-69
2024/03/06 04:17:25;;;;;;;25.40;11.75;;;;;;;2.15;100.00;101602.63;4978584;28;20038;-68
2024/03/06 04:19:50;;;;;;;22.90;12.23;;;;;;;2.13;100.00;101604.44;4962434;28;20041;-69
2024/03/06 04:22:18;;;;;;;23.98;13.38;;;;;;;2.06;100.00;101606.50;4965719;28;20400;-69
2024/03/06 04:24:44;;;;;;;26.77;13.80;;;;;;;2.05;100.00;101602.28;4978868;28;20035;-69
2024/03/06 04:27:10;;;;;;;24.98;13.35;;;;;;;2.07;100.00;101607.31;4983513;28;20037;-69
2024/03/06 04:29:35;;;;;;;28.05;13.55;;;;;;;2.07;100.00;101613.28;4977762;28;20089;-69
2024/03/06 04:32:01;;;;;;;23.88;13.30;;;;;;;2.06;100.00;101609.06;4987198;28;20035;-69
2024/03/06 04:34:26;;;;;;;25.33;13.48;;;;;;;2.05;100.00;101616.81;4982507;28;20043;-69
2024/03/06 04:36:52;;;;;;;26.67;13.30;;;;;;;2.01;100.00;101613.56;4982615;28;20058;-69
2024/03/06 04:39:17;;;;;;;26.02;13.80;;;;;;;2.01;100.00;101617.88;4965439;28;20404;-69
2024/03/06 04:41:43;;;;;;;24.25;13.40;;;;;;;1.99;100.00;101627.38;4970712;28;20034;-70
2024/03/06 04:44:08;;;;;;;27.50;13.63;;;;;;;2.00;100.00;101631.56;4967723;28;20520;-69
2024/03/06 04:46:34;;;;;;;30.75;15.02;;;;;;;2.00;100.00;101634.97;4966643;28;20035;-69
2024/03/06 04:48:59;;;;;;;26.60;13.93;;;;;;;1.99;100.00;101640.97;4969853;28;20046;-69
2024/03/06 04:51:25;;;;;;;26.95;14.20;;;;;;;2.00;100.00;101634.13;4986856;28;20050;-69
2024/03/06 04:53:50;;;;;;;23.17;13.48;;;;;;;2.02;100.00;101637.44;4983751;28;20034;-69
2024/03/06 04:56:18;;;;;;;33.58;14.13;;;;;;;1.95;100.00;101639.50;4963987;28;20038;-69
2024/03/06 04:58:44;;;;;;;22.70;13.68;;;;;;;1.82;100.00;101646.16;4965459;28;20051;-69
2024/03/06 05:01:11;;;;;;;22.10;12.07;;;;;;;1.76;100.00;101637.06;4966558;28;20035;-69
2024/03/06 05:03:38;;;;;;;26.00;13.35;;;;;;;1.73;100.00;101640.59;4966734;28;20034;-69
2024/03/06 05:06:07;;;;;;;22.77;13.25;;;;;;;1.73;100.00;101638.03;4970031;28;20046;-69
2024/03/06 05:08:33;;;;;;;24.42;13.23;;;;;;;1.74;100.00;101637.13;4967904;28;20419;-70
2024/03/06 05:11:02;;;;;;;24.25;13.10;;;;;;;1.75;100.00;101649.03;4989065;28;20030;-69
2024/03/06 05:13:27;;;;;;;20.92;12.48;;;;;;;1.74;100.00;101660.13;4985197;28;20508;-70
2024/03/06 05:15:54;;;;;;;27.02;12.27;;;;;;;1.70;100.00;101656.09;4986978;28;20038;-69
2024/03/06 05:18:20;;;;;;;20.25;12.20;;;;;;;1.62;100.00;101657.38;4983495;28;20038;-68
2024/03/06 05:20:46;;;;;;;20.23;12.30;;;;;;;1.53;100.00;101668.91;4984335;28;20428;-70
2024/03/06 05:23:12;;;;;;;17.70;11.48;;;;;;;1.39;100.00;101663.63;4952431;28;20044;-69
2024/03/06 05:25:38;;;;;;;19.60;11.20;;;;;;;1.38;100.00;101673.03;4967335;28;20126;-69
2024/03/06 05:28:04;;;;;;;19.73;11.60;;;;;;;1.38;100.00;101679.88;4967897;28;20046;-69
2024/03/06 05:30:30;;;;;;;19.40;11.18;;;;;;;1.38;100.00;101669.66;4983832;28;20485;-70
2024/03/06 05:32:56;;;;;;;18.33;11.68;;;;;;;1.39;100.00;101687.47;4979909;28;20046;-70
2024/03/06 05:35:21;;;;;;;19.25;11.07;;;;;;;1.39;100.00;101686.63;4978003;28;20260;-70
2024/03/06 05:37:47;;;;;;;17.77;10.68;;;;;;;1.38;100.00;101683.25;4966355;28;20038;-69
2024/03/06 05:40:12;;;;;;;18.20;10.98;;;;;;;1.41;100.00;101692.50;4981730;28;20621;-69
2024/03/06 05:42:38;;;;;;;18.63;10.90;;;;;;;1.43;100.00;101700.91;4971911;28;20065;-69
2024/03/06 05:45:10;;;;;;;19.88;11.57;;;;;;;1.43;100.00;101693.25;4971811;28;20100;-69
2024/03/06 05:47:36;;;;;;;20.60;12.63;;;;;;;1.44;100.00;101698.28;4984312;28;20053;-69
2024/03/06 05:50:04;;;;;;;22.40;12.20;;;;;;;1.44;100.00;101700.03;4952032;28;20039;-69
2024/03/06 05:52:31;;;;;;;21.40;11.18;;;;;;;1.41;100.00;101700.16;4979618;28;20619;-69
2024/03/06 05:54:57;;;;;;;16.35;10.95;;;;;;;1.39;100.00;101702.78;4985134;28;20046;-69
2024/03/06 05:57:22;;;;;;;19.40;10.95;;;;;;;1.38;100.00;101708.81;4982656;28;20377;-69
2024/03/06 05:59:48;;;;;;;16.92;10.57;;;;;;;1.38;100.00;101705.44;4980177;28;20053;-69
2024/03/06 06:02:16;;;;;;;17.02;10.68;;;;;;;1.37;100.00;101709.72;4984827;28;20026;-69
2024/03/06 06:04:42;;;;;;;20.15;11.75;;;;;;;1.35;100.00;101702.09;4964414;28;20439;-69
2024/03/06 06:07:07;;;;;;;17.00;11.00;;;;;;;1.36;100.00;101706.34;4983581;28;20046;-69
2024/03/06 06:09:33;;;;;;;20.15;11.05;;;;;;;1.34;100.00;101713.25;4984419;28;20051;-69
2024/03/06 06:11:59;;;;;;;22.42;12.07;;;;;;;1.31;100.00;101718.50;4981952;28;20041;-69
2024/03/06 06:14:26;;;;;;;18.23;10.90;;;;;;;1.27;100.00;101719.56;4966870;28;20030;-69
2024/03/06 06:16:52;;;;;;;22.13;11.77;;;;;;;1.24;100.00;101727.34;4983279;28;20042;-69
2024/03/06 06:19:18;;;;;;;21.23;12.45;;;;;;;1.23;100.00;101728.25;4968902;28;20048;-69
2024/03/06 06:21:43;;;;;;;22.90;11.63;;;;;;;1.22;100.00;101729.16;4982494;28;20080;-70
2024/03/06 06:24:09;;;;;;;20.00;11.52;;;;;;;1.24;100.00;101735.00;4967908;28;20062;-69
2024/03/06 06:26:34;;;;;;;24.42;13.07;;;;;;;1.26;100.00;101732.41;4984043;28;20038;-69
2024/03/06 06:29:00;;;;;;;20.30;11.40;;;;;;;1.19;100.00;101741.25;4982634;28;20034;-70
2024/03/06 06:31:26;;;;;;;18.25;11.13;;;;;;;1.11;100.00;101739.91;4982082;28;20034;-69
2024/03/06 06:33:53;;;;;;;20.20;11.75;;;;;;;1.08;100.00;101749.44;4966239;28;20439;-69
2024/03/06 06:36:19;;;;;;;21.55;11.55;;;;;;;1.09;100.00;101751.06;4966641;28;20030;-69
2024/03/06 06:38:45;;;;;;;21.75;11.75;;;;;;;1.12;100.00;101754.31;4983740;28;20149;-69
2024/03/06 06:41:10;;;;;;;25.25;12.88;;;;;;;1.15;100.00;101758.47;4981992;28;20034;-69
2024/03/06 06:43:36;;;;;;;31.30;14.95;;;;;;;1.19;100.00;101769.34;4978630;28;20030;-69
2024/03/06 06:46:04;;;;;;;27.75;15.60;;;;;;;1.23;100.00;101773.44;4984556;28;20034;-69
2024/03/06 06:48:30;;;;;;;35.22;15.48;;;;;;;1.22;100.00;101772.59;4979461;28;20464;-69
2024/03/06 06:50:56;;;;;;;25.50;14.52;;;;;;;1.25;100.00;101779.31;4965854;28;20390;-69
2024/03/06 06:53:21;;;;;;;28.73;16.48;;;;;;;1.29;100.00;101781.63;4965940;28;20034;-69
2024/03/06 06:55:47;;;;;;;32.10;15.40;;;;;;;1.32;100.00;101781.50;4985306;28;20026;-70
2024/03/06 06:58:12;;;;;;;25.67;14.32;;;;;;;1.29;100.00;101784.19;4964726;28;20600;-69
2024/03/06 07:00:38;;;;;;;22.30;13.02;;;;;;;1.30;100.00;101787.56;4965597;28;20043;-69
2024/03/06 07:03:03;;;;;;;27.15;14.23;;;;;;;1.32;100.00;101786.63;4981549;28;20484;-69
2024/03/06 07:05:29;;;;;;;28.02;14.23;;;;;;;1.38;100.00;101788.06;4982029;28;20114;-70
2024/03/06 07:07:55;;;;;;;35.65;14.98;;;;;;;1.45;100.00;101791.97;4965100;28;20507;-71
2024/03/06 07:10:21;;;;;;;30.40;15.05;;;;;;;1.54;100.00;101794.09;4980535;28;20113;-71
2024/03/06 07:12:46;;;;;;;32.33;14.75;;;;;;;1.66;100.00;101800.34;4968799;28;20381;-71
2024/03/06 07:15:12;;;;;;;28.80;15.05;;;;;;;1.88;100.00;101806.97;4985850;28;20039;-71
2024/03/06 07:17:38;;;;;;;29.85;14.80;;;;;;;2.22;100.00;101805.31;4976809;28;20074;-72
2024/03/06 07:20:05;;;;;;;28.13;15.60;;;;;;;2.52;100.00;101814.00;4982895;28;20042;-71
2024/03/06 07:22:33;;;;;;;31.23;15.57;;;;;;;2.81;100.00;101803.97;4983831;28;20074;-71
2024/03/06 07:25:01;;;;;;;28.92;15.07;;;;;;;3.33;100.00;101812.31;4970375;28;20571;-72
2024/03/06 07:27:27;;;;;;;27.20;15.07;;;;;;;3.77;100.00;101814.97;4987846;28;20473;-71
2024/03/06 07:29:53;;;;;;;26.80;15.57;;;;;;;4.24;100.00;101808.03;4973573;28;20087;-71
2024/03/06 07:32:19;;;;;;;24.67;14.10;;;;;;;4.69;100.00;101811.34;4967718;28;20428;-71
2024/03/06 07:34:45;;;;;;;29.75;15.20;;;;;;;5.00;100.00;101812.84;4985606;28;20034;-71
2024/03/06 07:37:10;;;;;;;27.30;15.32;;;;;;;4.91;100.00;101820.28;4987185;28;20042;-72
2024/03/06 07:39:35;;;;;;;24.70;14.93;;;;;;;5.15;100.00;101817.97;4985987;28;20807;-71
2024/03/06 07:42:02;;;;;;;33.42;17.33;;;;;;;4.86;100.00;101821.41;4957558;28;20047;-71
2024/03/06 07:44:27;;;;;;;27.60;17.00;;;;;;;4.66;100.00;101822.59;4984858;28;20062;-71
2024/03/06 07:46:54;;;;;;;33.97;17.15;;;;;;;4.88;100.00;101826.47;4969513;28;20039;-71
2024/03/06 07:49:21;;;;;;;26.17;15.25;;;;;;;5.31;100.00;101822.94;4970171;28;20030;-71
2024/03/06 07:51:47;;;;;;;28.60;16.15;;;;;;;5.95;100.00;101825.69;4982726;28;20030;-71
2024/03/06 07:54:13;;;;;;;24.33;14.18;;;;;;;6.46;100.00;101835.25;4986612;28;20829;-71
2024/03/06 07:56:39;;;;;;;23.63;14.68;;;;;;;6.81;100.00;101831.06;4965890;28;20034;-71
2024/03/06 07:59:05;;;;;;;22.88;12.30;;;;;;;7.07;100.00;101840.53;4970848;28;20038;-71
2024/03/06 08:01:31;;;;;;;21.60;11.23;;;;;;;7.37;100.00;101843.50;4986627;28;20031;-71
2024/03/06 08:03:57;;;;;;;26.23;11.85;;;;;;;7.43;100.00;101847.41;4985320;28;20113;-72
2024/03/06 08:06:23;;;;;;;22.50;11.35;;;;;;;7.60;100.00;101846.19;4969754;28;20085;-71
2024/03/06 08:08:49;;;;;;;22.15;11.45;;;;;;;7.12;100.00;101851.31;4967559;28;20113;-71
2024/03/06 08:11:14;;;;;;;21.77;11.52;;;;;;;6.87;100.00;101853.03;4987701;28;20032;-71
2024/03/06 08:13:40;;;;;;;17.85;10.45;;;;;;;7.51;100.00;101855.41;4986241;28;20060;-71
2024/03/06 08:16:07;;;;;;;23.40;10.38;;;;;;;8.22;100.00;101846.84;4971403;28;20124;-71
2024/03/06 08:18:34;;;;;;;19.77;10.10;;;;;;;8.74;100.00;101848.09;4990464;28;20026;-71
2024/03/06 08:21:01;;;;;;;22.63;10.57;;;;;;;8.98;96.07;101845.34;4988236;28;20022;-71
2024/03/06 08:23:26;;;;;;;18.08;9.57;;;;;;;9.37;96.37;101848.31;4989085;28;20471;-71
2024/03/06 08:25:55;;;;;;;20.30;8.75;;;;;;;9.64;93.85;101840.09;4969583;28;20066;-71
2024/03/06 08:28:21;;;;;;;16.63;8.63;;;;;;;9.93;91.22;101844.69;4985662;28;20107;-71
2024/03/06 08:30:46;;;;;;;20.88;9.20;;;;;;;10.32;89.27;101847.53;4990004;28;20026;-71
2024/03/06 08:33:12;;;;;;;14.60;7.75;;;;;;;10.54;88.44;101854.31;4990510;28;20061;-71
2024/03/06 08:35:38;;;;;;;14.90;8.35;;;;;;;10.83;85.18;101856.19;4989168;28;20042;-71
2024/03/06 08:38:03;;;;;;;12.43;7.30;;;;;;;10.86;83.47;101858.53;4988203;28;20033;-71
2024/03/06 08:40:29;;;;;;;13.55;6.80;;;;;;;10.63;81.52;101857.91;4991245;28;20042;-71
2024/03/06 08:42:55;;;;;;;13.18;6.43;;;;;;;11.01;80.29;101862.41;4988030;28;20073;-71
2024/03/06 08:45:20;;;;;;;16.73;7.55;;;;;;;10.99;79.94;101872.09;4988233;28;20034;-71
2024/03/06 08:47:48;;;;;;;15.02;6.55;;;;;;;11.35;76.22;101869.03;4970944;28;20042;-71
2024/03/06 08:50:14;;;;;;;17.20;6.70;;;;;;;11.33;76.66;101873.53;4971938;28;20054;-71
2024/03/06 08:52:41;;;;;;;14.57;7.55;;;;;;;11.13;79.31;101875.25;4990754;28;20093;-71
2024/03/06 08:55:07;;;;;;;15.18;6.60;;;;;;;11.13;80.08;101877.88;4984564;28;20108;-71
2024/03/06 08:57:33;;;;;;;19.17;6.72;;;;;;;11.19;80.13;101880.75;4988140;28;20030;-71
2024/03/06 08:59:59;;;;;;;21.67;8.00;;;;;;;11.37;79.23;101882.69;4965944;28;20926;-71
2024/03/06 09:02:25;;;;;;;24.63;7.20;;;;;;;11.25;76.89;101887.19;4989269;28;20030;-71
2024/03/06 09:04:51;;;;;;;12.02;6.50;;;;;;;11.19;76.95;101887.69;4966425;28;20049;-71
2024/03/06 09:07:18;;;;;;;16.30;7.07;;;;;;;10.87;78.25;101893.94;4970888;28;20045;-71
2024/03/06 09:09:43;;;;;;;16.33;7.28;;;;;;;10.68;82.17;101887.69;4981530;28;20801;-71
2024/03/06 09:12:10;;;;;;;17.20;10.88;;;;;;;10.88;81.08;101888.56;4986770;28;20037;-71
2024/03/06 09:14:39;;;;;;;17.55;9.25;;;;;;;10.82;80.26;101893.50;4988777;28;20041;-71
2024/03/06 09:17:05;;;;;;;19.83;8.10;;;;;;;10.42;84.69;101900.25;4990574;28;20599;-71
2024/03/06 09:19:32;;;;;;;15.88;8.27;;;;;;;10.57;84.29;101895.56;4966263;28;20050;-71
2024/03/06 09:21:58;;;;;;;18.75;7.97;;;;;;;10.73;86.93;101887.28;4987419;28;20157;-72
2024/03/06 09:24:28;;;;;;;17.83;7.65;;;;;;;10.93;82.11;101897.75;4989174;28;20041;-71
2024/03/06 09:26:53;;;;;;;22.25;8.32;;;;;;;10.72;80.21;101893.44;4984362;28;20041;-71
2024/03/06 09:29:19;;;;;;;15.75;7.25;;;;;;;10.93;81.99;101900.38;4972182;28;20030;-71
2024/03/06 09:31:45;;;;;;;15.10;7.85;;;;;;;10.88;82.10;101898.16;4986017;28;20046;-71
2024/03/06 09:34:12;;;;;;;14.80;7.97;;;;;;;10.72;81.16;101898.63;4971628;28;20208;-71
2024/03/06 09:36:45;;;;;;;16.42;8.50;;;;;;;10.45;84.11;101902.63;4973501;28;20030;-71
2024/03/06 09:39:20;;;;;;;18.65;8.50;;;;;;;10.16;85.30;101907.56;4988189;28;20034;-71
2024/03/06 09:41:47;;;;;;;16.25;8.60;;;;;;;10.18;83.78;101915.22;4988374;28;20053;-71
2024/03/06 09:44:13;;;;;;;20.58;8.73;;;;;;;10.17;84.92;101908.38;4956847;28;20045;-71
2024/03/06 09:46:46;;;;;;;20.08;9.05;;;;;;;10.19;86.50;101912.50;4970977;28;20069;-72
2024/03/06 09:49:14;;;;;;;22.00;10.27;;;;;;;10.07;84.63;101909.13;4993406;28;20121;-71
2024/03/06 09:51:45;;;;;;;19.25;9.85;;;;;;;10.16;84.00;101912.75;4985714;28;20026;-71
2024/03/06 09:54:13;;;;;;;20.33;10.00;;;;;;;10.16;83.59;101915.34;4985498;28;20030;-71
2024/03/06 09:56:38;;;;;;;15.55;8.93;;;;;;;10.31;83.80;101921.88;4971057;28;20034;-72
2024/03/06 09:59:04;;;;;;;19.23;8.95;;;;;;;10.13;79.35;101913.84;4986531;28;20318;-71
2024/03/06 10:01:31;;;;;;;22.73;9.18;;;;;;;10.22;82.61;101926.97;4987729;28;20101;-72
2024/03/06 10:03:57;;;;;;;18.55;9.30;;;;;;;10.29;84.92;101925.53;4967937;28;20205;-72
2024/03/06 10:06:22;;;;;;;19.65;9.20;;;;;;;10.15;84.39;101926.66;4987354;28;20404;-71
2024/03/06 10:08:49;;;;;;;18.23;8.13;;;;;;;10.09;84.03;101924.56;4966709;28;20482;-72
2024/03/06 10:11:17;;;;;;;16.55;8.73;;;;;;;10.05;85.99;101930.94;4982543;28;20473;-72
2024/03/06 10:13:42;;;;;;;21.60;10.32;;;;;;;10.09;84.91;101929.75;5004034;23;20436;-70
2024/03/06 10:16:09;;;;;;;21.58;10.48;;;;;;;10.13;83.75;101937.16;5051209;28;20037;-70
2024/03/06 10:18:38;;;;;;;19.98;10.18;;;;;;;10.26;83.82;101930.97;5057324;28;20042;-70
2024/03/06 10:21:05;;;;;;;26.33;11.25;;;;;;;10.08;84.85;101933.31;5044786;28;20126;-70
2024/03/06 10:23:31;;;;;;;17.70;10.98;;;;;;;10.16;85.18;101930.91;5056509;28;20032;-70
2024/03/06 10:25:56;;;;;;;23.23;11.00;;;;;;;10.40;83.06;101933.28;5024364;28;20028;-70
2024/03/06 10:28:23;;;;;;;20.20;11.32;;;;;;;10.40;81.75;101941.06;5046361;28;20025;-70
2024/03/06 10:30:50;;;;;;;20.88;10.60;;;;;;;10.39;80.81;101933.41;5023911;28;20121;-70
2024/03/06 10:33:18;;;;;;;23.25;9.70;;;;;;;10.46;82.84;101939.72;5022390;28;20036;-70
2024/03/06 10:35:45;;;;;;;18.20;9.75;;;;;;;10.22;81.92;101935.56;5041921;28;20569;-70
2024/03/06 10:38:12;;;;;;;17.45;9.90;;;;;;;10.14;83.44;101943.16;5043059;28;20043;-70
2024/03/06 10:40:39;;;;;;;18.50;9.57;;;;;;;10.35;83.15;101944.97;5042724;28;20035;-70
2024/03/06 10:43:06;;;;;;;19.17;9.88;;;;;;;10.30;84.64;101938.41;5043026;28;20044;-71
2024/03/06 10:45:47;;;;;;;18.00;9.85;;;;;;;10.46;84.03;101950.91;5043037;28;20438;-70
2024/03/06 10:48:19;;;;;;;17.30;8.88;;;;;;;10.58;80.25;101943.06;5044429;28;20719;-70
2024/03/06 10:50:46;;;;;;;23.23;11.45;;;;;;;10.66;83.22;101951.03;5044869;28;20083;-70
2024/03/06 10:53:17;;;;;;;17.15;10.07;;;;;;;10.63;82.41;101941.72;5044456;28;20040;-70
2024/03/06 10:55:45;;;;;;;21.42;10.65;;;;;;;10.90;83.32;101948.13;5045187;28;20038;-71
2024/03/06 10:58:11;;;;;;;17.55;9.30;;;;;;;11.01;81.31;101948.03;5044695;28;20127;-70
2024/03/06 11:00:49;;;;;;;18.38;9.52;;;;;;;11.01;80.94;101945.44;5044238;28;20043;-70
2024/03/06 11:03:16;;;;;;;19.55;10.40;;;;;;;11.09;81.80;101952.56;5040279;28;20159;-71
2024/03/06 11:05:45;;;;;;;15.43;9.25;;;;;;;11.00;81.09;101954.19;5043531;28;20045;-70
2024/03/06 11:08:12;;;;;;;17.63;9.60;;;;;;;10.75;78.80;101952.84;5043532;28;20029;-71
2024/03/06 11:10:40;;;;;;;17.23;9.32;;;;;;;10.86;79.25;101952.75;5043802;28;20040;-70